sensor_id;sensor_type;location;lat;lon;timestamp;P1;durP1;ratioP1;P2;durP2;ratioP2
26042;SDS011;13818;52.156;5.382;2023-04-03T00:00:03;4.40;;;1.10;;
26042;SDS011;13818;52.156;5.382;2023-04-03T00:02:31;2.30;;;0.95;;
26042;SDS011;13818;52.156;5.382;2023-04-03T00:04:58;3.58;;;0.63;;
26042;SDS011;13818;52.156;5.382;2023-04-03T00:07:25;3.65;;;1.40;;
26042;SDS011;13818;52.156;5.382;2023-04-03T00:09:52;3.75;;;0.85;;
26042;SDS011;13818;52.156;5.382;2023-04-03T00:12:20;2.85;;;0.80;;
26042;SDS011;13818;52.156;5.382;2023-04-03T00:14:46;1.95;;;0.85;;
26042;SDS011;13818;52.156;5.382;2023-04-03T00:17:13;14.95;;;1.35;;
26042;SDS011;13818;52.156;5.382;2023-04-03T00:19:39;2.58;;;0.80;;
26042;SDS011;13818;52.156;5.382;2023-04-03T00:22:06;4.07;;;0.80;;
26042;SDS011;13818;52.156;5.382;2023-04-03T00:24:33;4.43;;;1.00;;
26042;SDS011;13818;52.156;5.382;2023-04-03T00:27:00;2.17;;;0.80;;
26042;SDS011;13818;52.156;5.382;2023-04-03T00:29:27;1.50;;;0.70;;
26042;SDS011;13818;52.156;5.382;2023-04-03T00:31:54;1.38;;;0.70;;
26042;SDS011;13818;52.156;5.382;2023-04-03T00:34:20;3.05;;;1.13;;
26042;SDS011;13818;52.156;5.382;2023-04-03T00:36:47;1.95;;;0.68;;
26042;SDS011;13818;52.156;5.382;2023-04-03T00:39:13;5.70;;;1.15;;
26042;SDS011;13818;52.156;5.382;2023-04-03T00:41:40;4.05;;;0.75;;
26042;SDS011;13818;52.156;5.382;2023-04-03T00:44:19;6.55;;;1.02;;
26042;SDS011;13818;52.156;5.382;2023-04-03T00:46:48;1.83;;;0.93;;
26042;SDS011;13818;52.156;5.382;2023-04-03T00:49:15;2.47;;;0.90;;
26042;SDS011;13818;52.156;5.382;2023-04-03T00:51:42;3.17;;;0.90;;
26042;SDS011;13818;52.156;5.382;2023-04-03T00:54:08;3.25;;;1.23;;
26042;SDS011;13818;52.156;5.382;2023-04-03T00:56:36;4.35;;;1.08;;
26042;SDS011;13818;52.156;5.382;2023-04-03T00:59:04;2.63;;;1.10;;
26042;SDS011;13818;52.156;5.382;2023-04-03T01:01:34;7.78;;;0.85;;
26042;SDS011;13818;52.156;5.382;2023-04-03T01:04:03;3.80;;;1.20;;
26042;SDS011;13818;52.156;5.382;2023-04-03T01:06:32;2.33;;;0.98;;
26042;SDS011;13818;52.156;5.382;2023-04-03T01:09:03;2.65;;;0.90;;
26042;SDS011;13818;52.156;5.382;2023-04-03T01:11:30;1.52;;;0.73;;
26042;SDS011;13818;52.156;5.382;2023-04-03T01:13:57;1.95;;;0.77;;
26042;SDS011;13818;52.156;5.382;2023-04-03T01:16:23;3.42;;;0.80;;
26042;SDS011;13818;52.156;5.382;2023-04-03T01:18:50;5.47;;;1.08;;
26042;SDS011;13818;52.156;5.382;2023-04-03T01:21:26;5.38;;;1.30;;
26042;SDS011;13818;52.156;5.382;2023-04-03T01:24:16;3.10;;;1.27;;
26042;SDS011;13818;52.156;5.382;2023-04-03T01:26:51;1.63;;;0.90;;
26042;SDS011;13818;52.156;5.382;2023-04-03T01:29:17;1.77;;;0.95;;
26042;SDS011;13818;52.156;5.382;2023-04-03T01:31:47;4.43;;;1.10;;
26042;SDS011;13818;52.156;5.382;2023-04-03T01:34:15;2.80;;;0.82;;
26042;SDS011;13818;52.156;5.382;2023-04-03T01:36:42;4.40;;;1.15;;
26042;SDS011;13818;52.156;5.382;2023-04-03T01:39:08;2.25;;;1.10;;
26042;SDS011;13818;52.156;5.382;2023-04-03T01:41:35;1.38;;;0.70;;
26042;SDS011;13818;52.156;5.382;2023-04-03T01:44:01;2.83;;;1.33;;
26042;SDS011;13818;52.156;5.382;2023-04-03T01:46:29;2.15;;;1.20;;
26042;SDS011;13818;52.156;5.382;2023-04-03T01:48:57;2.33;;;1.35;;
26042;SDS011;13818;52.156;5.382;2023-04-03T01:51:24;4.45;;;1.40;;
26042;SDS011;13818;52.156;5.382;2023-04-03T01:53:50;2.58;;;0.80;;
26042;SDS011;13818;52.156;5.382;2023-04-03T01:56:17;2.83;;;1.20;;
26042;SDS011;13818;52.156;5.382;2023-04-03T01:58:43;2.78;;;1.40;;
26042;SDS011;13818;52.156;5.382;2023-04-03T02:01:10;2.75;;;1.30;;
26042;SDS011;13818;52.156;5.382;2023-04-03T02:03:37;4.97;;;1.40;;
26042;SDS011;13818;52.156;5.382;2023-04-03T02:06:05;4.40;;;1.17;;
26042;SDS011;13818;52.156;5.382;2023-04-03T02:08:32;2.35;;;0.73;;
26042;SDS011;13818;52.156;5.382;2023-04-03T02:10:59;4.00;;;1.70;;
26042;SDS011;13818;52.156;5.382;2023-04-03T02:13:25;4.72;;;1.70;;
26042;SDS011;13818;52.156;5.382;2023-04-03T02:15:52;4.97;;;0.88;;
26042;SDS011;13818;52.156;5.382;2023-04-03T02:18:19;1.88;;;1.00;;
26042;SDS011;13818;52.156;5.382;2023-04-03T02:20:46;5.72;;;1.27;;
26042;SDS011;13818;52.156;5.382;2023-04-03T02:23:14;7.70;;;1.17;;
26042;SDS011;13818;52.156;5.382;2023-04-03T02:25:40;3.08;;;1.20;;
26042;SDS011;13818;52.156;5.382;2023-04-03T02:28:07;6.93;;;1.25;;
26042;SDS011;13818;52.156;5.382;2023-04-03T02:30:33;5.28;;;1.80;;
26042;SDS011;13818;52.156;5.382;2023-04-03T02:33:00;7.47;;;1.58;;
26042;SDS011;13818;52.156;5.382;2023-04-03T02:35:26;4.10;;;1.55;;
26042;SDS011;13818;52.156;5.382;2023-04-03T02:37:53;2.03;;;1.25;;
26042;SDS011;13818;52.156;5.382;2023-04-03T02:40:21;3.53;;;1.65;;
26042;SDS011;13818;52.156;5.382;2023-04-03T02:42:49;4.10;;;1.40;;
26042;SDS011;13818;52.156;5.382;2023-04-03T02:45:21;9.73;;;1.30;;
26042;SDS011;13818;52.156;5.382;2023-04-03T02:47:48;4.53;;;1.85;;
26042;SDS011;13818;52.156;5.382;2023-04-03T02:50:14;3.80;;;1.20;;
26042;SDS011;13818;52.156;5.382;2023-04-03T02:52:42;3.25;;;1.30;;
26042;SDS011;13818;52.156;5.382;2023-04-03T02:55:09;3.10;;;1.13;;
26042;SDS011;13818;52.156;5.382;2023-04-03T02:57:41;2.20;;;1.30;;
26042;SDS011;13818;52.156;5.382;2023-04-03T03:00:08;2.53;;;1.20;;
26042;SDS011;13818;52.156;5.382;2023-04-03T03:02:35;3.20;;;1.30;;
26042;SDS011;13818;52.156;5.382;2023-04-03T03:05:02;12.32;;;1.60;;
26042;SDS011;13818;52.156;5.382;2023-04-03T03:07:29;5.10;;;1.48;;
26042;SDS011;13818;52.156;5.382;2023-04-03T03:09:55;2.22;;;1.20;;
26042;SDS011;13818;52.156;5.382;2023-04-03T03:12:22;2.85;;;1.35;;
26042;SDS011;13818;52.156;5.382;2023-04-03T03:14:50;3.42;;;1.52;;
26042;SDS011;13818;52.156;5.382;2023-04-03T03:17:17;6.00;;;1.42;;
26042;SDS011;13818;52.156;5.382;2023-04-03T03:19:44;4.22;;;1.52;;
26042;SDS011;13818;52.156;5.382;2023-04-03T03:22:10;5.20;;;1.20;;
26042;SDS011;13818;52.156;5.382;2023-04-03T03:24:37;4.93;;;1.33;;
26042;SDS011;13818;52.156;5.382;2023-04-03T03:27:04;4.20;;;1.30;;
26042;SDS011;13818;52.156;5.382;2023-04-03T03:29:30;6.60;;;1.63;;
26042;SDS011;13818;52.156;5.382;2023-04-03T03:31:58;3.83;;;1.27;;
26042;SDS011;13818;52.156;5.382;2023-04-03T03:34:25;5.72;;;1.40;;
26042;SDS011;13818;52.156;5.382;2023-04-03T03:36:51;4.53;;;1.45;;
26042;SDS011;13818;52.156;5.382;2023-04-03T03:39:18;4.82;;;1.48;;
26042;SDS011;13818;52.156;5.382;2023-04-03T03:41:44;3.67;;;1.70;;
26042;SDS011;13818;52.156;5.382;2023-04-03T03:44:11;3.47;;;1.38;;
26042;SDS011;13818;52.156;5.382;2023-04-03T03:46:37;4.85;;;1.50;;
26042;SDS011;13818;52.156;5.382;2023-04-03T03:49:05;4.63;;;1.67;;
26042;SDS011;13818;52.156;5.382;2023-04-03T03:51:32;5.43;;;1.48;;
26042;SDS011;13818;52.156;5.382;2023-04-03T03:53:58;4.78;;;1.92;;
26042;SDS011;13818;52.156;5.382;2023-04-03T03:56:25;3.60;;;1.50;;
26042;SDS011;13818;52.156;5.382;2023-04-03T03:58:51;2.65;;;1.10;;
26042;SDS011;13818;52.156;5.382;2023-04-03T04:01:18;3.28;;;1.00;;
26042;SDS011;13818;52.156;5.382;2023-04-03T04:03:45;6.22;;;1.80;;
26042;SDS011;13818;52.156;5.382;2023-04-03T04:06:13;2.10;;;1.00;;
26042;SDS011;13818;52.156;5.382;2023-04-03T04:08:40;4.60;;;1.65;;
26042;SDS011;13818;52.156;5.382;2023-04-03T04:11:06;4.90;;;1.45;;
26042;SDS011;13818;52.156;5.382;2023-04-03T04:13:33;5.15;;;1.83;;
26042;SDS011;13818;52.156;5.382;2023-04-03T04:16:00;5.53;;;1.52;;
26042;SDS011;13818;52.156;5.382;2023-04-03T04:18:26;3.08;;;1.17;;
26042;SDS011;13818;52.156;5.382;2023-04-03T04:20:53;7.03;;;1.90;;
26042;SDS011;13818;52.156;5.382;2023-04-03T04:23:21;5.55;;;1.45;;
26042;SDS011;13818;52.156;5.382;2023-04-03T04:25:48;6.20;;;1.73;;
26042;SDS011;13818;52.156;5.382;2023-04-03T04:28:16;2.28;;;1.35;;
26042;SDS011;13818;52.156;5.382;2023-04-03T04:30:43;5.28;;;1.83;;
26042;SDS011;13818;52.156;5.382;2023-04-03T04:33:09;5.35;;;1.58;;
26042;SDS011;13818;52.156;5.382;2023-04-03T04:35:36;6.65;;;2.00;;
26042;SDS011;13818;52.156;5.382;2023-04-03T04:38:02;5.85;;;1.67;;
26042;SDS011;13818;52.156;5.382;2023-04-03T04:40:31;3.28;;;1.48;;
26042;SDS011;13818;52.156;5.382;2023-04-03T04:42:57;7.22;;;1.95;;
26042;SDS011;13818;52.156;5.382;2023-04-03T04:45:23;6.13;;;1.75;;
26042;SDS011;13818;52.156;5.382;2023-04-03T04:47:50;2.58;;;1.40;;
26042;SDS011;13818;52.156;5.382;2023-04-03T04:50:18;2.75;;;1.60;;
26042;SDS011;13818;52.156;5.382;2023-04-03T04:52:44;6.75;;;1.63;;
26042;SDS011;13818;52.156;5.382;2023-04-03T04:55:11;4.68;;;2.08;;
26042;SDS011;13818;52.156;5.382;2023-04-03T04:57:39;5.30;;;1.50;;
26042;SDS011;13818;52.156;5.382;2023-04-03T05:00:06;5.55;;;2.45;;
26042;SDS011;13818;52.156;5.382;2023-04-03T05:02:33;5.28;;;2.08;;
26042;SDS011;13818;52.156;5.382;2023-04-03T05:04:59;4.28;;;1.40;;
26042;SDS011;13818;52.156;5.382;2023-04-03T05:07:26;3.42;;;1.48;;
26042;SDS011;13818;52.156;5.382;2023-04-03T05:09:52;6.07;;;2.20;;
26042;SDS011;13818;52.156;5.382;2023-04-03T05:12:19;6.35;;;2.20;;
26042;SDS011;13818;52.156;5.382;2023-04-03T05:14:47;2.63;;;1.60;;
26042;SDS011;13818;52.156;5.382;2023-04-03T05:17:13;3.10;;;1.45;;
26042;SDS011;13818;52.156;5.382;2023-04-03T05:19:40;5.18;;;1.73;;
26042;SDS011;13818;52.156;5.382;2023-04-03T05:22:06;4.13;;;1.58;;
26042;SDS011;13818;52.156;5.382;2023-04-03T05:24:33;3.35;;;1.40;;
26042;SDS011;13818;52.156;5.382;2023-04-03T05:26:59;6.20;;;1.90;;
26042;SDS011;13818;52.156;5.382;2023-04-03T05:29:27;8.02;;;1.80;;
26042;SDS011;13818;52.156;5.382;2023-04-03T05:31:55;6.40;;;1.90;;
26042;SDS011;13818;52.156;5.382;2023-04-03T05:34:21;5.22;;;2.25;;
26042;SDS011;13818;52.156;5.382;2023-04-03T05:36:48;4.82;;;2.10;;
26042;SDS011;13818;52.156;5.382;2023-04-03T05:39:15;6.03;;;1.55;;
26042;SDS011;13818;52.156;5.382;2023-04-03T05:41:41;3.50;;;1.42;;
26042;SDS011;13818;52.156;5.382;2023-04-03T05:44:08;7.55;;;1.67;;
26042;SDS011;13818;52.156;5.382;2023-04-03T05:46:34;4.45;;;1.33;;
26042;SDS011;13818;52.156;5.382;2023-04-03T05:49:02;7.60;;;1.58;;
26042;SDS011;13818;52.156;5.382;2023-04-03T05:51:30;4.47;;;1.50;;
26042;SDS011;13818;52.156;5.382;2023-04-03T05:54:01;4.78;;;1.50;;
26042;SDS011;13818;52.156;5.382;2023-04-03T05:56:32;3.42;;;1.30;;
26042;SDS011;13818;52.156;5.382;2023-04-03T05:58:59;3.08;;;1.25;;
26042;SDS011;13818;52.156;5.382;2023-04-03T06:01:25;9.25;;;1.73;;
26042;SDS011;13818;52.156;5.382;2023-04-03T06:03:53;3.20;;;1.13;;
26042;SDS011;13818;52.156;5.382;2023-04-03T06:06:20;8.55;;;2.95;;
26042;SDS011;13818;52.156;5.382;2023-04-03T06:08:48;6.70;;;1.57;;
26042;SDS011;13818;52.156;5.382;2023-04-03T06:11:15;4.70;;;1.60;;
26042;SDS011;13818;52.156;5.382;2023-04-03T06:13:41;3.03;;;1.35;;
26042;SDS011;13818;52.156;5.382;2023-04-03T06:16:08;5.55;;;1.63;;
26042;SDS011;13818;52.156;5.382;2023-04-03T06:18:35;2.42;;;1.40;;
26042;SDS011;13818;52.156;5.382;2023-04-03T06:21:02;3.20;;;1.20;;
26042;SDS011;13818;52.156;5.382;2023-04-03T06:23:31;7.47;;;1.17;;
26042;SDS011;13818;52.156;5.382;2023-04-03T06:25:57;3.58;;;1.48;;
26042;SDS011;13818;52.156;5.382;2023-04-03T06:28:24;7.05;;;1.80;;
26042;SDS011;13818;52.156;5.382;2023-04-03T06:30:51;3.80;;;1.00;;
26042;SDS011;13818;52.156;5.382;2023-04-03T06:33:17;4.07;;;1.35;;
26042;SDS011;13818;52.156;5.382;2023-04-03T06:35:44;3.72;;;1.60;;
26042;SDS011;13818;52.156;5.382;2023-04-03T06:38:11;5.28;;;1.33;;
26042;SDS011;13818;52.156;5.382;2023-04-03T06:40:39;4.32;;;1.48;;
26042;SDS011;13818;52.156;5.382;2023-04-03T06:43:05;2.13;;;1.20;;
26042;SDS011;13818;52.156;5.382;2023-04-03T06:45:32;4.35;;;1.33;;
26042;SDS011;13818;52.156;5.382;2023-04-03T06:47:58;4.68;;;1.40;;
26042;SDS011;13818;52.156;5.382;2023-04-03T06:50:25;5.90;;;1.13;;
26042;SDS011;13818;52.156;5.382;2023-04-03T06:52:52;4.63;;;1.10;;
26042;SDS011;13818;52.156;5.382;2023-04-03T06:55:18;5.80;;;1.33;;
26042;SDS011;13818;52.156;5.382;2023-04-03T06:57:46;6.47;;;1.40;;
26042;SDS011;13818;52.156;5.382;2023-04-03T07:00:13;4.72;;;1.60;;
26042;SDS011;13818;52.156;5.382;2023-04-03T07:02:41;7.68;;;1.92;;
26042;SDS011;13818;52.156;5.382;2023-04-03T07:05:07;3.75;;;1.38;;
26042;SDS011;13818;52.156;5.382;2023-04-03T07:07:35;4.63;;;1.50;;
26042;SDS011;13818;52.156;5.382;2023-04-03T07:10:03;2.17;;;1.08;;
26042;SDS011;13818;52.156;5.382;2023-04-03T07:12:30;3.53;;;1.20;;
26042;SDS011;13818;52.156;5.382;2023-04-03T07:14:58;2.78;;;1.10;;
26042;SDS011;13818;52.156;5.382;2023-04-03T07:17:24;4.60;;;1.48;;
26042;SDS011;13818;52.156;5.382;2023-04-03T07:19:52;4.72;;;1.30;;
26042;SDS011;13818;52.156;5.382;2023-04-03T07:22:18;7.80;;;1.73;;
26042;SDS011;13818;52.156;5.382;2023-04-03T07:24:45;6.85;;;1.23;;
26042;SDS011;13818;52.156;5.382;2023-04-03T07:27:12;5.80;;;1.58;;
26042;SDS011;13818;52.156;5.382;2023-04-03T07:29:38;3.40;;;1.02;;
26042;SDS011;13818;52.156;5.382;2023-04-03T07:32:06;4.25;;;1.30;;
26042;SDS011;13818;52.156;5.382;2023-04-03T07:34:32;4.88;;;1.20;;
26042;SDS011;13818;52.156;5.382;2023-04-03T07:36:59;4.55;;;1.45;;
26042;SDS011;13818;52.156;5.382;2023-04-03T07:39:26;4.65;;;1.50;;
26042;SDS011;13818;52.156;5.382;2023-04-03T07:41:53;3.78;;;1.40;;
26042;SDS011;13818;52.156;5.382;2023-04-03T07:44:22;5.22;;;1.42;;
26042;SDS011;13818;52.156;5.382;2023-04-03T07:46:49;7.05;;;2.15;;
26042;SDS011;13818;52.156;5.382;2023-04-03T07:49:17;7.13;;;2.10;;
26042;SDS011;13818;52.156;5.382;2023-04-03T07:51:44;3.45;;;1.40;;
26042;SDS011;13818;52.156;5.382;2023-04-03T07:54:11;5.63;;;1.20;;
26042;SDS011;13818;52.156;5.382;2023-04-03T07:56:38;6.18;;;1.38;;
26042;SDS011;13818;52.156;5.382;2023-04-03T07:59:04;3.92;;;1.17;;
26042;SDS011;13818;52.156;5.382;2023-04-03T08:01:31;7.30;;;1.55;;
26042;SDS011;13818;52.156;5.382;2023-04-03T08:03:58;5.47;;;1.67;;
26042;SDS011;13818;52.156;5.382;2023-04-03T08:06:26;1.80;;;0.90;;
26042;SDS011;13818;52.156;5.382;2023-04-03T08:08:54;4.35;;;1.60;;
26042;SDS011;13818;52.156;5.382;2023-04-03T08:11:20;5.28;;;1.02;;
26042;SDS011;13818;52.156;5.382;2023-04-03T08:13:48;3.83;;;1.20;;
26042;SDS011;13818;52.156;5.382;2023-04-03T08:16:15;3.15;;;1.10;;
26042;SDS011;13818;52.156;5.382;2023-04-03T08:18:43;5.32;;;1.23;;
26042;SDS011;13818;52.156;5.382;2023-04-03T08:21:10;5.57;;;1.20;;
26042;SDS011;13818;52.156;5.382;2023-04-03T08:23:39;5.53;;;0.93;;
26042;SDS011;13818;52.156;5.382;2023-04-03T08:26:08;3.03;;;0.98;;
26042;SDS011;13818;52.156;5.382;2023-04-03T08:28:36;2.08;;;1.15;;
26042;SDS011;13818;52.156;5.382;2023-04-03T08:31:03;4.70;;;2.17;;
26042;SDS011;13818;52.156;5.382;2023-04-03T08:33:32;2.17;;;1.00;;
26042;SDS011;13818;52.156;5.382;2023-04-03T08:36:00;4.50;;;1.20;;
26042;SDS011;13818;52.156;5.382;2023-04-03T08:38:27;3.03;;;0.82;;
26042;SDS011;13818;52.156;5.382;2023-04-03T08:41:04;5.15;;;1.30;;
26042;SDS011;13818;52.156;5.382;2023-04-03T08:43:37;4.82;;;1.08;;
26042;SDS011;13818;52.156;5.382;2023-04-03T08:46:24;3.85;;;1.00;;
26042;SDS011;13818;52.156;5.382;2023-04-03T08:48:58;1.55;;;0.73;;
26042;SDS011;13818;52.156;5.382;2023-04-03T08:51:25;2.90;;;0.95;;
26042;SDS011;13818;52.156;5.382;2023-04-03T08:53:54;6.68;;;1.00;;
26042;SDS011;13818;52.156;5.382;2023-04-03T08:56:25;3.60;;;1.05;;
26042;SDS011;13818;52.156;5.382;2023-04-03T08:58:56;3.80;;;0.93;;
26042;SDS011;13818;52.156;5.382;2023-04-03T09:01:24;4.20;;;0.70;;
26042;SDS011;13818;52.156;5.382;2023-04-03T09:03:56;1.48;;;0.68;;
26042;SDS011;13818;52.156;5.382;2023-04-03T09:06:23;0.55;;;0.35;;
26042;SDS011;13818;52.156;5.382;2023-04-03T09:08:57;1.17;;;0.43;;
26042;SDS011;13818;52.156;5.382;2023-04-03T09:11:40;3.90;;;0.60;;
26042;SDS011;13818;52.156;5.382;2023-04-03T09:14:13;3.58;;;0.60;;
26042;SDS011;13818;52.156;5.382;2023-04-03T09:16:48;2.03;;;0.50;;
26042;SDS011;13818;52.156;5.382;2023-04-03T09:19:21;0.63;;;0.38;;
26042;SDS011;13818;52.156;5.382;2023-04-03T09:21:57;0.90;;;0.28;;
26042;SDS011;13818;52.156;5.382;2023-04-03T09:24:26;0.20;;;0.00;;
26042;SDS011;13818;52.156;5.382;2023-04-03T09:26:57;0.70;;;0.25;;
26042;SDS011;13818;52.156;5.382;2023-04-03T09:29:27;0.32;;;0.20;;
26042;SDS011;13818;52.156;5.382;2023-04-03T09:31:56;1.83;;;0.50;;
26042;SDS011;13818;52.156;5.382;2023-04-03T09:34:26;0.60;;;0.22;;
26042;SDS011;13818;52.156;5.382;2023-04-03T09:36:54;1.50;;;0.50;;
26042;SDS011;13818;52.156;5.382;2023-04-03T09:39:23;1.85;;;0.32;;
26042;SDS011;13818;52.156;5.382;2023-04-03T09:41:57;0.40;;;0.30;;
26042;SDS011;13818;52.156;5.382;2023-04-03T09:44:26;1.30;;;0.47;;
26042;SDS011;13818;52.156;5.382;2023-04-03T09:46:56;2.15;;;0.20;;
26042;SDS011;13818;52.156;5.382;2023-04-03T09:49:23;2.55;;;0.35;;
26042;SDS011;13818;52.156;5.382;2023-04-03T09:51:49;2.55;;;0.70;;
26042;SDS011;13818;52.156;5.382;2023-04-03T09:54:30;2.97;;;0.63;;
26042;SDS011;13818;52.156;5.382;2023-04-03T09:57:01;2.58;;;0.30;;
26042;SDS011;13818;52.156;5.382;2023-04-03T09:59:32;2.92;;;1.08;;
26042;SDS011;13818;52.156;5.382;2023-04-03T10:02:00;3.30;;;0.57;;
26042;SDS011;13818;52.156;5.382;2023-04-03T10:04:37;0.70;;;0.43;;
26042;SDS011;13818;52.156;5.382;2023-04-03T10:07:25;0.88;;;0.32;;
26042;SDS011;13818;52.156;5.382;2023-04-03T10:09:54;7.07;;;0.50;;
26042;SDS011;13818;52.156;5.382;2023-04-03T10:12:22;0.60;;;0.32;;
26042;SDS011;13818;52.156;5.382;2023-04-03T10:14:53;1.13;;;0.13;;
26042;SDS011;13818;52.156;5.382;2023-04-03T10:17:22;2.03;;;0.25;;
26042;SDS011;13818;52.156;5.382;2023-04-03T10:19:57;0.52;;;0.13;;
26042;SDS011;13818;52.156;5.382;2023-04-03T10:22:30;0.30;;;0.20;;
26042;SDS011;13818;52.156;5.382;2023-04-03T10:25:10;0.00;;;0.00;;
26042;SDS011;13818;52.156;5.382;2023-04-03T10:27:46;2.28;;;0.40;;
26042;SDS011;13818;52.156;5.382;2023-04-03T10:30:21;2.47;;;0.30;;
26042;SDS011;13818;52.156;5.382;2023-04-03T10:33:03;1.98;;;0.22;;
26042;SDS011;13818;52.156;5.382;2023-04-03T10:35:44;0.98;;;0.45;;
26042;SDS011;13818;52.156;5.382;2023-04-03T10:38:20;1.50;;;0.30;;
26042;SDS011;13818;52.156;5.382;2023-04-03T10:40:57;1.50;;;0.30;;
26042;SDS011;13818;52.156;5.382;2023-04-03T10:43:32;2.40;;;0.43;;
26042;SDS011;13818;52.156;5.382;2023-04-03T10:46:03;1.95;;;0.40;;
26042;SDS011;13818;52.156;5.382;2023-04-03T10:48:37;1.17;;;0.30;;
26042;SDS011;13818;52.156;5.382;2023-04-03T10:51:16;1.30;;;0.75;;
26042;SDS011;13818;52.156;5.382;2023-04-03T10:53:52;3.15;;;0.63;;
26042;SDS011;13818;52.156;5.382;2023-04-03T10:56:26;0.40;;;0.30;;
26042;SDS011;13818;52.156;5.382;2023-04-03T10:59:00;2.72;;;0.60;;
26042;SDS011;13818;52.156;5.382;2023-04-03T11:01:35;0.52;;;0.10;;
26042;SDS011;13818;52.156;5.382;2023-04-03T11:04:05;1.48;;;0.45;;
26042;SDS011;13818;52.156;5.382;2023-04-03T11:06:34;1.20;;;0.20;;
26042;SDS011;13818;52.156;5.382;2023-04-03T11:09:07;2.58;;;0.43;;
26042;SDS011;13818;52.156;5.382;2023-04-03T11:11:43;0.98;;;0.38;;
26042;SDS011;13818;52.156;5.382;2023-04-03T11:14:14;0.57;;;0.20;;
26042;SDS011;13818;52.156;5.382;2023-04-03T11:16:49;2.97;;;0.20;;
26042;SDS011;13818;52.156;5.382;2023-04-03T11:19:26;4.88;;;0.57;;
26042;SDS011;13818;52.156;5.382;2023-04-03T11:22:01;2.10;;;0.30;;
26042;SDS011;13818;52.156;5.382;2023-04-03T11:24:34;0.45;;;0.20;;
26042;SDS011;13818;52.156;5.382;2023-04-03T11:27:05;0.90;;;0.40;;
26042;SDS011;13818;52.156;5.382;2023-04-03T11:29:37;5.13;;;0.47;;
26042;SDS011;13818;52.156;5.382;2023-04-03T11:32:09;0.90;;;0.32;;
26042;SDS011;13818;52.156;5.382;2023-04-03T11:34:51;0.38;;;0.20;;
26042;SDS011;13818;52.156;5.382;2023-04-03T11:37:23;1.23;;;0.50;;
26042;SDS011;13818;52.156;5.382;2023-04-03T11:39:56;1.50;;;0.25;;
26042;SDS011;13818;52.156;5.382;2023-04-03T11:42:27;2.40;;;0.55;;
26042;SDS011;13818;52.156;5.382;2023-04-03T11:48:02;1.50;;;0.35;;
26042;SDS011;13818;52.156;5.382;2023-04-03T11:50:41;1.20;;;0.50;;
26042;SDS011;13818;52.156;5.382;2023-04-03T11:53:26;0.60;;;0.30;;
26042;SDS011;13818;52.156;5.382;2023-04-03T11:59:15;1.85;;;0.52;;
26042;SDS011;13818;52.156;5.382;2023-04-03T12:01:48;0.98;;;0.25;;
26042;SDS011;13818;52.156;5.382;2023-04-03T12:04:18;1.60;;;0.32;;
26042;SDS011;13818;52.156;5.382;2023-04-03T12:09:57;2.58;;;0.70;;
26042;SDS011;13818;52.156;5.382;2023-04-03T12:12:35;3.10;;;0.40;;
26042;SDS011;13818;52.156;5.382;2023-04-03T12:15:18;1.27;;;0.47;;
26042;SDS011;13818;52.156;5.382;2023-04-03T12:17:49;1.65;;;0.60;;
26042;SDS011;13818;52.156;5.382;2023-04-03T12:23:24;2.35;;;0.55;;
26042;SDS011;13818;52.156;5.382;2023-04-03T12:28:25;2.15;;;0.73;;
26042;SDS011;13818;52.156;5.382;2023-04-03T12:30:53;1.42;;;0.50;;
26042;SDS011;13818;52.156;5.382;2023-04-03T12:33:24;4.07;;;0.40;;
26042;SDS011;13818;52.156;5.382;2023-04-03T12:36:04;2.70;;;0.50;;
26042;SDS011;13818;52.156;5.382;2023-04-03T12:38:41;1.25;;;0.40;;
26042;SDS011;13818;52.156;5.382;2023-04-03T12:41:19;1.95;;;0.60;;
26042;SDS011;13818;52.156;5.382;2023-04-03T12:44:06;1.98;;;0.35;;
26042;SDS011;13818;52.156;5.382;2023-04-03T12:46:47;2.63;;;0.60;;
26042;SDS011;13818;52.156;5.382;2023-04-03T12:49:22;2.15;;;0.98;;
26042;SDS011;13818;52.156;5.382;2023-04-03T12:52:00;1.20;;;0.63;;
26042;SDS011;13818;52.156;5.382;2023-04-03T12:54:30;3.92;;;0.63;;
26042;SDS011;13818;52.156;5.382;2023-04-03T12:57:09;3.47;;;0.50;;
26042;SDS011;13818;52.156;5.382;2023-04-03T12:59:36;2.25;;;0.50;;
26042;SDS011;13818;52.156;5.382;2023-04-03T13:02:03;0.40;;;0.20;;
26042;SDS011;13818;52.156;5.382;2023-04-03T13:04:43;0.60;;;0.40;;
26042;SDS011;13818;52.156;5.382;2023-04-03T13:07:19;2.88;;;0.57;;
26042;SDS011;13818;52.156;5.382;2023-04-03T13:09:54;2.22;;;0.68;;
26042;SDS011;13818;52.156;5.382;2023-04-03T13:12:24;1.65;;;0.40;;
26042;SDS011;13818;52.156;5.382;2023-04-03T13:14:51;3.05;;;0.85;;
26042;SDS011;13818;52.156;5.382;2023-04-03T13:17:19;3.63;;;0.60;;
26042;SDS011;13818;52.156;5.382;2023-04-03T13:19:46;2.75;;;0.60;;
26042;SDS011;13818;52.156;5.382;2023-04-03T13:22:16;3.50;;;0.52;;
26042;SDS011;13818;52.156;5.382;2023-04-03T13:24:53;1.52;;;0.57;;
26042;SDS011;13818;52.156;5.382;2023-04-03T13:27:22;2.38;;;0.50;;
26042;SDS011;13818;52.156;5.382;2023-04-03T13:29:51;1.77;;;0.43;;
26042;SDS011;13818;52.156;5.382;2023-04-03T13:32:20;2.63;;;0.68;;
26042;SDS011;13818;52.156;5.382;2023-04-03T13:34:48;1.25;;;0.50;;
26042;SDS011;13818;52.156;5.382;2023-04-03T13:37:20;1.05;;;0.45;;
26042;SDS011;13818;52.156;5.382;2023-04-03T13:39:58;1.63;;;0.50;;
26042;SDS011;13818;52.156;5.382;2023-04-03T13:42:27;1.45;;;0.50;;
26042;SDS011;13818;52.156;5.382;2023-04-03T13:45:18;2.85;;;0.68;;
26042;SDS011;13818;52.156;5.382;2023-04-03T13:47:49;3.65;;;0.40;;
26042;SDS011;13818;52.156;5.382;2023-04-03T13:50:19;1.58;;;0.45;;
26042;SDS011;13818;52.156;5.382;2023-04-03T13:52:48;1.55;;;0.30;;
26042;SDS011;13818;52.156;5.382;2023-04-03T13:55:19;1.80;;;0.70;;
26042;SDS011;13818;52.156;5.382;2023-04-03T13:57:50;2.00;;;0.50;;
26042;SDS011;13818;52.156;5.382;2023-04-03T14:00:21;2.40;;;0.38;;
26042;SDS011;13818;52.156;5.382;2023-04-03T14:02:54;2.83;;;0.88;;
26042;SDS011;13818;52.156;5.382;2023-04-03T14:05:22;1.05;;;0.55;;
26042;SDS011;13818;52.156;5.382;2023-04-03T14:07:50;4.15;;;0.65;;
26042;SDS011;13818;52.156;5.382;2023-04-03T14:10:19;2.60;;;0.65;;
26042;SDS011;13818;52.156;5.382;2023-04-03T14:12:46;1.83;;;0.65;;
26042;SDS011;13818;52.156;5.382;2023-04-03T14:15:16;2.17;;;0.65;;
26042;SDS011;13818;52.156;5.382;2023-04-03T14:17:45;2.20;;;0.60;;
26042;SDS011;13818;52.156;5.382;2023-04-03T14:20:14;2.08;;;0.63;;
26042;SDS011;13818;52.156;5.382;2023-04-03T14:22:41;1.83;;;0.80;;
26042;SDS011;13818;52.156;5.382;2023-04-03T14:25:08;3.22;;;0.80;;
26042;SDS011;13818;52.156;5.382;2023-04-03T14:27:37;0.90;;;0.43;;
26042;SDS011;13818;52.156;5.382;2023-04-03T14:30:05;1.08;;;0.40;;
26042;SDS011;13818;52.156;5.382;2023-04-03T14:35:00;2.67;;;0.60;;
26042;SDS011;13818;52.156;5.382;2023-04-03T14:37:30;2.15;;;0.60;;
26042;SDS011;13818;52.156;5.382;2023-04-03T14:39:57;2.97;;;0.88;;
26042;SDS011;13818;52.156;5.382;2023-04-03T14:42:27;2.58;;;0.80;;
26042;SDS011;13818;52.156;5.382;2023-04-03T14:44:57;4.10;;;0.55;;
26042;SDS011;13818;52.156;5.382;2023-04-03T14:47:26;4.15;;;0.80;;
26042;SDS011;13818;52.156;5.382;2023-04-03T14:49:54;3.15;;;0.80;;
26042;SDS011;13818;52.156;5.382;2023-04-03T14:52:21;4.90;;;0.80;;
26042;SDS011;13818;52.156;5.382;2023-04-03T14:57:16;3.03;;;0.80;;
26042;SDS011;13818;52.156;5.382;2023-04-03T14:59:43;3.30;;;0.98;;
26042;SDS011;13818;52.156;5.382;2023-04-03T15:02:22;4.90;;;0.70;;
26042;SDS011;13818;52.156;5.382;2023-04-03T15:04:52;3.47;;;0.75;;
26042;SDS011;13818;52.156;5.382;2023-04-03T15:07:18;1.67;;;0.75;;
26042;SDS011;13818;52.156;5.382;2023-04-03T15:09:45;4.10;;;1.10;;
26042;SDS011;13818;52.156;5.382;2023-04-03T15:12:11;2.28;;;1.02;;
26042;SDS011;13818;52.156;5.382;2023-04-03T15:14:38;1.10;;;0.73;;
26042;SDS011;13818;52.156;5.382;2023-04-03T15:17:05;2.60;;;1.00;;
26042;SDS011;13818;52.156;5.382;2023-04-03T15:19:35;6.50;;;1.17;;